createdAt,value
2019-02-05T00:00:29.106Z,100047.11
2019-02-05T00:01:00.498Z,100048.34
2019-02-05T00:01:33.974Z,100050.10
2019-02-05T00:02:04.680Z,100047.03
2019-02-05T00:02:35.908Z,100046.61
2019-02-05T00:03:07.117Z,100045.31
2019-02-05T00:03:38.387Z,100046.15
2019-02-05T00:04:09.608Z,100044.84
2019-02-05T00:04:40.770Z,100047.88
2019-02-05T00:05:11.967Z,100047.41
2019-02-05T00:05:44.036Z,100043.42
2019-02-05T00:06:15.226Z,100048.59
2019-02-05T00:06:46.407Z,100046.37
2019-02-05T00:07:17.581Z,100048.09
2019-02-05T00:07:49.141Z,100052.00
2019-02-05T00:08:20.379Z,100054.19
2019-02-05T00:08:51.568Z,100047.67
2019-02-05T00:09:22.773Z,100058.98
2019-02-05T00:09:53.920Z,100054.61
2019-02-05T00:10:25.096Z,100061.55
2019-02-05T00:10:56.258Z,100055.45
2019-02-05T00:11:27.446Z,100055.41
2019-02-05T00:11:58.623Z,100054.02
2019-02-05T00:12:29.836Z,100053.52
2019-02-05T00:13:01.009Z,100058.28
2019-02-05T00:13:32.789Z,100056.51
2019-02-05T00:14:03.977Z,100056.39
2019-02-05T00:14:35.169Z,100062.02
2019-02-05T00:15:06.400Z,100055.88
2019-02-05T00:15:37.572Z,100058.02
2019-02-05T00:16:08.766Z,100061.94
2019-02-05T00:16:39.945Z,100058.02
2019-02-05T00:17:11.130Z,100055.41
2019-02-05T00:17:42.324Z,100051.41
2019-02-05T00:18:13.667Z,100055.75
2019-02-05T00:18:44.855Z,100056.17
2019-02-05T00:19:16.031Z,100053.55
2019-02-05T00:19:47.211Z,100054.02
2019-02-05T00:20:18.425Z,100058.78
2019-02-05T00:20:49.590Z,100056.17
2019-02-05T00:21:20.759Z,100053.14
2019-02-05T00:21:51.946Z,100056.17
2019-02-05T00:22:23.159Z,100057.43
2019-02-05T00:22:54.390Z,100058.34
2019-02-05T00:23:25.623Z,100060.55
2019-02-05T00:23:56.920Z,100060.08
2019-02-05T00:24:28.137Z,100057.43
2019-02-05T00:24:59.408Z,100061.34
2019-02-05T00:25:30.623Z,100059.20
2019-02-05T00:26:06.235Z,100063.53
2019-02-05T00:26:34.845Z,100066.55
2019-02-05T00:27:06.086Z,100072.25
2019-02-05T00:27:37.305Z,100068.80
2019-02-05T00:28:08.527Z,100069.67
2019-02-05T00:28:39.765Z,100070.52
2019-02-05T00:29:10.981Z,100070.98
2019-02-05T00:29:42.200Z,100074.44
2019-02-05T00:30:13.426Z,100067.87
2019-02-05T00:30:51.949Z,100067.86
2019-02-05T00:31:23.210Z,100064.84
2019-02-05T00:31:54.722Z,100063.03
2019-02-05T00:32:25.952Z,100062.19
2019-02-05T00:32:57.172Z,100062.65
2019-02-05T00:33:28.419Z,100064.41
2019-02-05T00:33:59.646Z,100059.61
2019-02-05T00:34:30.851Z,100068.33
2019-02-05T00:35:02.084Z,100060.50
2019-02-05T00:35:33.311Z,100065.25
2019-02-05T00:36:04.530Z,100063.53
2019-02-05T00:36:35.737Z,100063.11
2019-02-05T00:37:06.951Z,100064.47
2019-02-05T00:37:38.600Z,100066.70
2019-02-05T00:38:09.815Z,100061.94
2019-02-05T00:38:41.049Z,100058.91
2019-02-05T00:39:12.267Z,100061.05
2019-02-05T00:39:43.522Z,100060.63
2019-02-05T00:40:14.788Z,100062.39
2019-02-05T00:40:46.032Z,100068.46
2019-02-05T00:41:17.266Z,100070.65
2019-02-05T00:41:48.481Z,100063.78
2019-02-05T00:42:19.713Z,100059.53
2019-02-05T00:42:50.969Z,100061.30
2019-02-05T00:43:22.579Z,100063.91
2019-02-05T00:43:53.797Z,100063.49
2019-02-05T00:44:25.038Z,100063.08
2019-02-05T00:44:56.270Z,100064.88
2019-02-05T00:45:27.465Z,100060.05
2019-02-05T00:45:58.694Z,100064.37
2019-02-05T00:46:29.917Z,100057.44
2019-02-05T00:47:01.180Z,100060.97
2019-02-05T00:47:32.440Z,100058.78
2019-02-05T00:48:03.937Z,100058.36
2019-02-05T00:48:35.218Z,100062.77
2019-02-05T00:49:06.721Z,100063.20
2019-02-05T00:49:37.952Z,100065.39
2019-02-05T00:50:09.163Z,100058.91
2019-02-05T00:50:40.379Z,100065.00
2019-02-05T00:51:11.664Z,100061.13
2019-02-05T00:51:42.996Z,100070.30
2019-02-05T00:52:14.185Z,100070.77
2019-02-05T00:52:45.411Z,100067.27
2019-02-05T00:53:16.609Z,100069.50
2019-02-05T00:53:48.033Z,100065.25
2019-02-05T00:54:19.245Z,100066.12
2019-02-05T00:54:50.737Z,100069.59
2019-02-05T00:55:22.419Z,100073.49
2019-02-05T00:55:53.634Z,100071.27
2019-02-05T00:56:24.883Z,100075.18
2019-02-05T00:56:56.123Z,100076.02
2019-02-05T00:57:27.337Z,100073.83
2019-02-05T00:57:58.552Z,100072.95
2019-02-05T00:58:29.777Z,100079.44
2019-02-05T00:59:00.997Z,100074.67
2019-02-05T00:59:32.457Z,100073.38
2019-02-05T01:00:03.672Z,100075.52
2019-02-05T01:00:35.269Z,100074.22
2019-02-05T01:01:06.484Z,100073.76
2019-02-05T01:01:37.736Z,100077.67
2019-02-05T01:02:08.956Z,100078.55
2019-02-05T01:02:40.163Z,100076.78
2019-02-05T01:03:11.377Z,100080.70
2019-02-05T01:03:42.637Z,100080.28
2019-02-05T01:04:13.886Z,100082.46
2019-02-05T01:04:45.098Z,100074.67
2019-02-05T01:05:16.582Z,100076.83
2019-02-05T01:05:47.799Z,100078.17
2019-02-05T01:06:19.234Z,100075.56
2019-02-05T01:06:50.478Z,100075.56
2019-02-05T01:07:21.734Z,100075.60
2019-02-05T01:07:53.077Z,100071.73
2019-02-05T01:08:24.286Z,100076.09
2019-02-05T01:08:55.569Z,100076.56
2019-02-05T01:09:26.780Z,100075.72
2019-02-05T01:09:58.024Z,100069.70
2019-02-05T01:10:29.264Z,100071.89
2019-02-05T01:11:00.768Z,100070.16
2019-02-05T01:11:32.004Z,100069.31
2019-02-05T01:12:03.585Z,100068.90
2019-02-05T01:12:34.824Z,100069.81
2019-02-05T01:13:06.067Z,100070.70
2019-02-05T01:13:37.331Z,100066.37
2019-02-05T01:14:08.543Z,100066.37
2019-02-05T01:14:39.752Z,100069.43
2019-02-05T01:15:10.999Z,100063.30
2019-02-05T01:15:42.254Z,100068.09
2019-02-05T01:16:13.501Z,100067.21
2019-02-05T01:16:44.822Z,100058.08
2019-02-05T01:17:16.111Z,100061.99
2019-02-05T01:17:47.830Z,100061.95
2019-02-05T01:18:19.054Z,100057.16
2019-02-05T01:18:50.286Z,100061.99
2019-02-05T01:19:21.508Z,100055.90
2019-02-05T01:19:52.708Z,100060.69
2019-02-05T01:20:23.935Z,100061.61
2019-02-05T01:20:55.184Z,100060.31
2019-02-05T01:21:26.399Z,100057.70
2019-02-05T01:21:57.707Z,100060.31
2019-02-05T01:22:29.105Z,100060.34
2019-02-05T01:23:00.345Z,100052.56
2019-02-05T01:23:31.967Z,100055.59
2019-02-05T01:24:03.194Z,100056.89
2019-02-05T01:24:34.381Z,100054.30
2019-02-05T01:25:05.645Z,100055.59
2019-02-05T01:25:36.859Z,100053.87
2019-02-05T01:26:08.152Z,100060.38
2019-02-05T01:26:39.425Z,100055.59
2019-02-05T01:27:10.648Z,100061.61
2019-02-05T01:27:41.862Z,100062.49
2019-02-05T01:28:13.088Z,100057.70
2019-02-05T01:28:44.313Z,100060.31
2019-02-05T01:29:16.014Z,100060.73
2019-02-05T01:29:47.228Z,100059.84
2019-02-05T01:30:18.449Z,100065.48
2019-02-05T01:30:49.668Z,100062.42
2019-02-05T01:31:20.917Z,100060.69
2019-02-05T01:31:52.146Z,100064.61
2019-02-05T01:32:23.355Z,100058.55
2019-02-05T01:32:56.893Z,100060.31
2019-02-05T01:33:28.132Z,100065.06
2019-02-05T01:33:59.345Z,100069.39
2019-02-05T01:34:30.570Z,100068.48
2019-02-05T01:35:02.049Z,100067.48
2019-02-05T01:35:33.284Z,100067.27
2019-02-05T01:36:04.504Z,100067.11
2019-02-05T01:36:35.853Z,100062.57
2019-02-05T01:37:07.065Z,100065.51
2019-02-05T01:37:38.572Z,100058.02
2019-02-05T01:38:09.939Z,100066.27
2019-02-05T01:38:41.177Z,100066.64
2019-02-05T01:39:12.397Z,100065.77
2019-02-05T01:39:43.632Z,100063.66
2019-02-05T01:40:14.823Z,100065.89
2019-02-05T01:40:46.391Z,100065.98
2019-02-05T01:41:17.625Z,100063.41
2019-02-05T01:41:48.815Z,100062.23
2019-02-05T01:42:20.062Z,100058.36
2019-02-05T01:42:51.284Z,100060.09
2019-02-05T01:43:22.506Z,100055.70
2019-02-05T01:43:53.717Z,100062.10
2019-02-05T01:44:24.956Z,100061.64
2019-02-05T01:44:56.158Z,100055.95
2019-02-05T01:45:27.373Z,100062.02
2019-02-05T01:45:58.603Z,100063.70
2019-02-05T01:46:30.029Z,100066.31
2019-02-05T01:47:01.282Z,100064.20
2019-02-05T01:47:32.505Z,100065.13
2019-02-05T01:48:03.715Z,100066.06
2019-02-05T01:48:34.962Z,100062.98
2019-02-05T01:49:06.243Z,100064.33
2019-02-05T01:49:37.455Z,100066.98
2019-02-05T01:50:08.690Z,100065.27
2019-02-05T01:50:39.900Z,100067.91
2019-02-05T01:51:11.123Z,100067.06
2019-02-05T01:51:42.352Z,100064.00
2019-02-05T01:52:14.267Z,100068.33
2019-02-05T01:52:45.546Z,100069.67
2019-02-05T01:53:16.777Z,100069.17
2019-02-05T01:53:48.014Z,100067.06
2019-02-05T01:54:19.221Z,100068.41
2019-02-05T01:54:50.440Z,100074.56
2019-02-05T01:55:21.655Z,100078.52
2019-02-05T01:55:52.888Z,100070.72
2019-02-05T01:56:24.157Z,100073.76
2019-02-05T01:56:55.382Z,100075.09
2019-02-05T01:57:26.604Z,100078.17
2019-02-05T01:57:58.250Z,100075.56
2019-02-05T01:58:29.492Z,100077.78
2019-02-05T01:59:00.721Z,100079.05
2019-02-05T01:59:31.926Z,100076.44
2019-02-05T02:00:03.220Z,100081.66
2019-02-05T02:00:34.442Z,100079.05
2019-02-05T02:01:05.731Z,100074.67
2019-02-05T02:01:36.962Z,100079.81
2019-02-05T02:02:08.175Z,100081.08
2019-02-05T02:02:39.378Z,100084.02
2019-02-05T02:03:10.595Z,100079.56
2019-02-05T02:03:42.215Z,100076.00
2019-02-05T02:04:13.449Z,100083.70
2019-02-05T02:04:44.641Z,100077.97
2019-02-05T02:05:15.907Z,100080.13
2019-02-05T02:05:47.169Z,100077.52
2019-02-05T02:06:18.401Z,100078.81
2019-02-05T02:06:49.612Z,100081.05
2019-02-05T02:07:20.876Z,100077.17
2019-02-05T02:07:52.119Z,100080.28
2019-02-05T02:08:23.433Z,100075.95
2019-02-05T02:08:54.662Z,100077.30
2019-02-05T02:09:26.309Z,100074.34
2019-02-05T02:09:57.522Z,100076.95
2019-02-05T02:10:28.779Z,100073.52
2019-02-05T02:10:59.976Z,100081.34
2019-02-05T02:11:31.208Z,100077.84
2019-02-05T02:12:02.422Z,100075.78
2019-02-05T02:12:33.659Z,100075.36
2019-02-05T02:13:04.892Z,100077.97
2019-02-05T02:13:36.162Z,100078.85
2019-02-05T02:14:07.540Z,100080.16
2019-02-05T02:14:38.815Z,100078.01
2019-02-05T02:15:10.068Z,100076.73
2019-02-05T02:15:41.290Z,100073.76
2019-02-05T02:16:12.529Z,100077.28
2019-02-05T02:16:43.741Z,100074.67
2019-02-05T02:17:14.980Z,100077.29
2019-02-05T02:17:46.198Z,100079.47
2019-02-05T02:18:17.421Z,100079.09
2019-02-05T02:18:48.634Z,100080.86
2019-02-05T02:19:19.901Z,100076.09
2019-02-05T02:19:51.397Z,100076.98
2019-02-05T02:20:22.625Z,100082.20
2019-02-05T02:20:53.859Z,100082.66
2019-02-05T02:21:25.069Z,100080.94
2019-02-05T02:21:56.285Z,100081.36
2019-02-05T02:22:27.494Z,100077.45
2019-02-05T02:22:59.020Z,100077.02
2019-02-05T02:23:30.301Z,100079.63
2019-02-05T02:24:01.518Z,100077.91
2019-02-05T02:24:32.742Z,100076.14
2019-02-05T02:25:03.955Z,100076.14
2019-02-05T02:25:35.663Z,100083.12
2019-02-05T02:26:06.899Z,100075.80
2019-02-05T02:26:38.223Z,100071.46
2019-02-05T02:27:09.441Z,100075.80
2019-02-05T02:27:40.663Z,100073.19
2019-02-05T02:28:11.952Z,100072.30
2019-02-05T02:28:43.161Z,100067.09
2019-02-05T02:29:14.461Z,100071.46
2019-02-05T02:29:45.703Z,100072.34
2019-02-05T02:30:16.977Z,100070.20
2019-02-05T02:30:48.189Z,100075.03
2019-02-05T02:31:19.700Z,100072.89
2019-02-05T02:31:50.976Z,100073.34
2019-02-05T02:32:22.211Z,100074.27
2019-02-05T02:32:53.442Z,100077.33
2019-02-05T02:33:24.664Z,100073.46
2019-02-05T02:33:55.896Z,100070.89
2019-02-05T02:34:27.122Z,100068.74
2019-02-05T02:34:58.355Z,100070.05
2019-02-05T02:35:29.614Z,100071.35
2019-02-05T02:36:00.823Z,100070.47
2019-02-05T02:36:32.053Z,100069.16
2019-02-05T02:37:03.590Z,100070.86
2019-02-05T02:37:34.814Z,100063.56
2019-02-05T02:38:06.045Z,100069.20
2019-02-05T02:38:37.262Z,100067.06
2019-02-05T02:39:08.488Z,100066.25
2019-02-05T02:39:39.721Z,100064.95
2019-02-05T02:40:10.932Z,100064.52
2019-02-05T02:40:42.217Z,100062.77
2019-02-05T02:41:13.444Z,100066.25
2019-02-05T02:41:44.660Z,100064.95
2019-02-05T02:42:15.892Z,100064.98
2019-02-05T02:42:47.414Z,100067.59
2019-02-05T02:43:18.639Z,100068.48
2019-02-05T02:43:49.868Z,100066.36
2019-02-05T02:44:21.074Z,100066.83
2019-02-05T02:44:52.314Z,100060.34
2019-02-05T02:45:23.643Z,100066.89
2019-02-05T02:45:54.938Z,100071.23
2019-02-05T02:46:27.123Z,100065.21
2019-02-05T02:46:58.396Z,100073.63
2019-02-05T02:47:29.608Z,100067.64
2019-02-05T02:48:00.839Z,100068.03
2019-02-05T02:48:32.479Z,100071.55
2019-02-05T02:49:03.742Z,100067.64
2019-02-05T02:49:34.934Z,100070.25
2019-02-05T02:50:06.167Z,100071.59
2019-02-05T02:50:37.446Z,100068.14
2019-02-05T02:51:08.695Z,100067.75
2019-02-05T02:51:39.952Z,100067.33
2019-02-05T02:52:11.169Z,100067.33
2019-02-05T02:52:42.402Z,100068.20
2019-02-05T02:53:13.613Z,100069.52
2019-02-05T02:53:44.843Z,100067.82
2019-02-05T02:54:16.626Z,100066.06
2019-02-05T02:54:47.875Z,100064.34
2019-02-05T02:55:19.103Z,100067.36
2019-02-05T02:55:50.339Z,100063.03
2019-02-05T02:56:21.568Z,100068.66
2019-02-05T02:57:04.394Z,100064.79
2019-02-05T02:57:25.769Z,100065.67
2019-02-05T02:57:56.978Z,100063.06
2019-02-05T02:58:28.239Z,100066.98
2019-02-05T02:58:59.477Z,100064.37
2019-02-05T02:59:30.691Z,100068.70
2019-02-05T03:00:02.813Z,100065.64
2019-02-05T03:00:34.085Z,100070.00
2019-02-05T03:01:05.297Z,100073.91
2019-02-05T03:01:36.532Z,100085.24
2019-02-05T03:02:07.753Z,100072.64
2019-02-05T03:02:38.981Z,100068.34
2019-02-05T03:03:10.236Z,100067.95
2019-02-05T03:03:41.464Z,100066.63
2019-02-05T03:04:12.719Z,100067.47
2019-02-05T03:04:43.930Z,100072.25
2019-02-05T03:05:15.186Z,100063.56
2019-02-05T03:05:46.911Z,100070.11
2019-02-05T03:06:18.124Z,100063.13
2019-02-05T03:06:51.316Z,100064.47
2019-02-05T03:07:22.545Z,100070.14
2019-02-05T03:07:53.769Z,100068.41
2019-02-05T03:08:25.005Z,100074.95
2019-02-05T03:08:56.272Z,100078.44
2019-02-05T03:09:27.571Z,100074.95
2019-02-05T03:09:58.757Z,100078.90
2019-02-05T03:10:30.245Z,100076.75
2019-02-05T03:11:01.513Z,100077.17
2019-02-05T03:11:32.708Z,100081.08
2019-02-05T03:12:03.930Z,100081.99
2019-02-05T03:12:35.172Z,100076.36
2019-02-05T03:13:06.412Z,100078.12
2019-02-05T03:13:37.649Z,100076.81
2019-02-05T03:14:08.904Z,100080.72
2019-02-05T03:14:40.109Z,100079.06
2019-02-05T03:15:11.320Z,100076.91
2019-02-05T03:15:42.549Z,100076.91
2019-02-05T03:16:14.231Z,100081.77
2019-02-05T03:16:45.446Z,100083.09
2019-02-05T03:17:16.672Z,100079.65
2019-02-05T03:17:47.925Z,100081.86
2019-02-05T03:18:19.189Z,100079.28
2019-02-05T03:18:50.413Z,100080.19
2019-02-05T03:19:21.653Z,100081.95
2019-02-05T03:19:52.864Z,100075.47
2019-02-05T03:20:24.085Z,100078.50
2019-02-05T03:20:55.816Z,100078.92
2019-02-05T03:21:27.044Z,100076.32
2019-02-05T03:21:58.282Z,100077.16
2019-02-05T03:22:29.513Z,100078.47
2019-02-05T03:23:00.757Z,100073.69
2019-02-05T03:23:32.076Z,100075.38
2019-02-05T03:24:03.296Z,100075.41
2019-02-05T03:24:34.513Z,100074.56
2019-02-05T03:25:05.748Z,100077.17
2019-02-05T03:25:37.453Z,100076.74
2019-02-05T03:26:08.698Z,100077.16
2019-02-05T03:26:39.914Z,100084.55
2019-02-05T03:27:17.971Z,100084.55
2019-02-05T03:27:44.132Z,100079.34
2019-02-05T03:28:15.400Z,100078.63
2019-02-05T03:28:46.627Z,100084.31
2019-02-05T03:29:17.822Z,100086.06
2019-02-05T03:29:49.035Z,100087.37
2019-02-05T03:30:20.272Z,100087.37
2019-02-05T03:30:51.553Z,100085.64
2019-02-05T03:31:24.467Z,100089.97
2019-02-05T03:31:55.696Z,100089.57
2019-02-05T03:32:26.922Z,100087.48
2019-02-05T03:32:58.165Z,100090.12
2019-02-05T03:33:29.451Z,100082.36
2019-02-05T03:34:00.677Z,100092.38
2019-02-05T03:34:31.951Z,100085.88
2019-02-05T03:35:03.170Z,100085.94
2019-02-05T03:35:34.389Z,100091.08
2019-02-05T03:36:05.591Z,100096.31
2019-02-05T03:36:36.812Z,100090.26
2019-02-05T03:37:08.521Z,100087.66
2019-02-05T03:37:39.758Z,100095.46
2019-02-05T03:38:10.993Z,100087.66
2019-02-05T03:38:42.262Z,100091.11
2019-02-05T03:39:13.519Z,100093.25
2019-02-05T03:39:45.013Z,100094.55
2019-02-05T03:40:16.635Z,100092.38
2019-02-05T03:40:47.853Z,100092.83
2019-02-05T03:41:19.082Z,100094.16
2019-02-05T03:41:50.532Z,100100.27
2019-02-05T03:42:21.793Z,100094.64
2019-02-05T03:42:53.028Z,100095.97
2019-02-05T03:43:24.315Z,100096.00
2019-02-05T03:43:55.536Z,100093.84
2019-02-05T03:44:26.783Z,100101.70
2019-02-05T03:44:58.027Z,100100.91
2019-02-05T03:45:29.247Z,100099.69
2019-02-05T03:46:00.456Z,100093.69
2019-02-05T03:46:31.673Z,100091.98
2019-02-05T03:47:02.909Z,100099.38
2019-02-05T03:47:34.510Z,100092.94
2019-02-05T03:48:05.732Z,100099.03
2019-02-05T03:48:37.002Z,100094.28
2019-02-05T03:49:08.205Z,100097.33
2019-02-05T03:49:39.445Z,100095.20
2019-02-05T03:50:10.657Z,100097.38
2019-02-05T03:50:41.941Z,100094.35
2019-02-05T03:51:13.208Z,100096.11
2019-02-05T03:51:44.470Z,100096.95
2019-02-05T03:52:15.984Z,100096.11
2019-02-05T03:52:47.491Z,100093.92
2019-02-05T03:53:18.740Z,100101.31
2019-02-05T03:53:49.956Z,100102.58
2019-02-05T03:54:21.183Z,100099.55
2019-02-05T03:54:52.446Z,100098.70
2019-02-05T03:55:23.675Z,100094.35
2019-02-05T03:55:54.912Z,100093.50
2019-02-05T03:56:26.194Z,100102.20
2019-02-05T03:56:57.405Z,100096.59
2019-02-05T03:57:31.033Z,100091.45
2019-02-05T03:58:01.584Z,100097.57
2019-02-05T03:58:32.807Z,100092.80
2019-02-05T03:59:04.049Z,100100.56
2019-02-05T03:59:35.329Z,100095.37
2019-02-05T04:00:06.567Z,100095.37
2019-02-05T04:00:37.779Z,100089.31
2019-02-05T04:01:09.015Z,100092.81
2019-02-05T04:01:40.286Z,99945.67
2019-02-05T04:02:11.532Z,100091.96
2019-02-05T04:02:42.815Z,100098.46
2019-02-05T04:03:14.088Z,100099.76
2019-02-05T04:03:45.683Z,100099.78
2019-02-05T04:04:16.927Z,100102.38
2019-02-05T04:04:48.137Z,100097.19
2019-02-05T04:05:19.368Z,100100.63
2019-02-05T04:05:50.591Z,100096.34
2019-02-05T04:06:21.809Z,100092.44
2019-02-05T04:06:53.087Z,100098.52
2019-02-05T04:07:24.304Z,100097.21
2019-02-05T04:07:55.521Z,100100.23
2019-02-05T04:08:26.746Z,100091.58
2019-02-05T04:08:58.022Z,100094.64
2019-02-05T04:09:29.623Z,100098.58
2019-02-05T04:10:00.846Z,100099.45
2019-02-05T04:10:32.062Z,100094.29
2019-02-05T04:11:03.319Z,100101.66
2019-02-05T04:11:34.617Z,100103.05
2019-02-05T04:12:05.847Z,100098.37
2019-02-05T04:12:37.105Z,100098.39
2019-02-05T04:13:08.418Z,100101.45
2019-02-05T04:13:39.662Z,100098.86
2019-02-05T04:14:10.885Z,100101.04
2019-02-05T04:14:42.115Z,100101.93
2019-02-05T04:15:13.601Z,100102.36
2019-02-05T04:15:44.853Z,100101.98
2019-02-05T04:16:16.076Z,100100.70
2019-02-05T04:16:47.326Z,100103.77
2019-02-05T04:17:18.553Z,100101.71
2019-02-05T04:17:49.823Z,100103.06
2019-02-05T04:18:21.054Z,100105.70
2019-02-05T04:18:52.288Z,100108.34
2019-02-05T04:19:23.521Z,100106.66
2019-02-05T04:19:54.753Z,100104.10
2019-02-05T04:20:25.967Z,100105.84
2019-02-05T04:20:57.464Z,100103.23
2019-02-05T04:21:28.688Z,100103.67
2019-02-05T04:21:59.905Z,100103.67
2019-02-05T04:22:31.131Z,100103.67
2019-02-05T04:23:02.386Z,100103.23
2019-02-05T04:23:33.623Z,100103.26
2019-02-05T04:24:04.851Z,100102.83
2019-02-05T04:24:36.057Z,100102.83
2019-02-05T04:25:07.277Z,100097.66
2019-02-05T04:25:38.504Z,100099.82
2019-02-05T04:26:09.709Z,100101.13
2019-02-05T04:26:41.372Z,99990.06
2019-02-05T04:27:12.589Z,100093.38
2019-02-05T04:27:47.240Z,100093.84
2019-02-05T04:28:16.779Z,100098.60
2019-02-05T04:28:48.017Z,100090.86
2019-02-05T04:29:19.278Z,100088.69
2019-02-05T04:29:50.498Z,100093.45
2019-02-05T04:30:21.722Z,100098.60
2019-02-05T04:30:52.972Z,100094.75
2019-02-05T04:31:24.207Z,100099.94
2019-02-05T04:31:55.429Z,100090.86
2019-02-05T04:32:27.147Z,100094.31
2019-02-05T04:32:58.415Z,100088.70
2019-02-05T04:33:29.647Z,100095.61
2019-02-05T04:34:00.954Z,100094.77
2019-02-05T04:34:32.266Z,100102.53
2019-02-05T04:35:03.557Z,100099.07
2019-02-05T04:35:34.770Z,100104.26
2019-02-05T04:36:06.046Z,100106.85
2019-02-05T04:36:37.292Z,100101.64
2019-02-05T04:37:08.625Z,100105.97
2019-02-05T04:37:39.819Z,100106.40
2019-02-05T04:38:11.624Z,100107.25
2019-02-05T04:38:42.891Z,100103.77
2019-02-05T04:39:14.125Z,100107.63
2019-02-05T04:39:45.359Z,100104.14
2019-02-05T04:40:16.593Z,100100.69
2019-02-05T04:40:47.821Z,100110.63
2019-02-05T04:41:19.065Z,100105.01
2019-02-05T04:41:50.368Z,100104.16
2019-02-05T04:42:21.591Z,100105.05
2019-02-05T04:42:53.090Z,100104.61
2019-02-05T04:43:24.319Z,100109.39
2019-02-05T04:43:55.551Z,100106.40
2019-02-05T04:44:26.813Z,100108.13
2019-02-05T04:44:58.113Z,100102.53
2019-02-05T04:45:34.176Z,100097.34
2019-02-05T04:46:02.327Z,100108.56
2019-02-05T04:46:33.537Z,100105.11
2019-02-05T04:47:04.778Z,100107.66
2019-02-05T04:47:36.002Z,100105.52
2019-02-05T04:48:07.301Z,100104.20
2019-02-05T04:48:38.562Z,100108.55
2019-02-05T04:49:09.780Z,100109.45
2019-02-05T04:49:41.378Z,100108.17
2019-02-05T04:50:12.673Z,100109.05
2019-02-05T04:50:43.922Z,100111.61
2019-02-05T04:51:15.169Z,100112.05
2019-02-05T04:51:46.393Z,100109.45
2019-02-05T04:52:17.620Z,100116.34
2019-02-05T04:52:48.870Z,100118.06
2019-02-05T04:53:20.156Z,100115.46
2019-02-05T04:53:51.377Z,100114.58
2019-02-05T04:54:22.874Z,100123.21
2019-02-05T04:54:54.106Z,100121.48
2019-02-05T04:55:25.364Z,100125.80
2019-02-05T04:55:56.583Z,100120.15
2019-02-05T04:56:27.846Z,100124.47
2019-02-05T04:56:59.100Z,100126.19
2019-02-05T04:57:30.319Z,100119.70
2019-02-05T04:58:01.756Z,100118.83
2019-02-05T04:58:33.043Z,100122.27
2019-02-05T04:59:04.311Z,100123.98
2019-02-05T04:59:35.505Z,100127.85
2019-02-05T05:00:07.018Z,100125.25
2019-02-05T05:00:38.240Z,100124.38
2019-02-05T05:01:09.514Z,100128.28
2019-02-05T05:01:40.729Z,100133.00
2019-02-05T05:02:11.939Z,100131.70
2019-02-05T05:02:43.298Z,100131.27
2019-02-05T05:03:14.521Z,100128.66
2019-02-05T05:03:45.758Z,100132.55
2019-02-05T05:04:16.969Z,100129.11
2019-02-05T05:04:48.200Z,100131.29
2019-02-05T05:05:19.502Z,99915.63
2019-02-05T05:05:51.010Z,100131.35
2019-02-05T05:06:22.276Z,100129.25
2019-02-05T05:06:53.576Z,100129.28
2019-02-05T05:07:24.821Z,100130.59
2019-02-05T05:07:56.048Z,100129.75
2019-02-05T05:08:27.264Z,100128.92
2019-02-05T05:08:58.505Z,100127.23
2019-02-05T05:09:29.748Z,99956.72
2019-02-05T05:10:00.992Z,100134.61
2019-02-05T05:10:32.198Z,100133.79
2019-02-05T05:11:03.429Z,100132.92
2019-02-05T05:11:35.094Z,100129.50
2019-02-05T05:12:06.337Z,100131.66
2019-02-05T05:12:37.551Z,100134.68
2019-02-05T05:13:08.770Z,100139.45
2019-02-05T05:13:40.025Z,100131.69
2019-02-05T05:14:11.267Z,100132.13
2019-02-05T05:14:42.528Z,100136.01
2019-02-05T05:15:13.694Z,100135.13
2019-02-05T05:15:44.954Z,100143.75
2019-02-05T05:16:16.440Z,100144.19
2019-02-05T05:16:47.649Z,100142.05
2019-02-05T05:17:19.335Z,100146.34
2019-02-05T05:17:50.594Z,100145.97
2019-02-05T05:18:21.829Z,100142.50
2019-02-05T05:18:53.044Z,100143.81
2019-02-05T05:19:24.271Z,100143.41
2019-02-05T05:19:55.514Z,100145.99
2019-02-05T05:20:26.736Z,100149.47
2019-02-05T05:20:57.963Z,100148.63
2019-02-05T05:21:29.197Z,100154.25
2019-02-05T05:22:00.762Z,100155.55
2019-02-05T05:22:31.987Z,100148.23
2019-02-05T05:23:03.212Z,100148.23
2019-02-05T05:23:34.453Z,100147.83
2019-02-05T05:24:05.669Z,100146.53
2019-02-05T05:24:36.909Z,100146.95
2019-02-05T05:25:08.111Z,100148.25
2019-02-05T05:25:39.348Z,100149.97
2019-02-05T05:26:10.541Z,100150.00
2019-02-05T05:26:41.800Z,100147.41
2019-02-05T05:27:13.027Z,100149.13
2019-02-05T05:27:44.783Z,100149.14
2019-02-05T05:28:16.021Z,100151.74
2019-02-05T05:28:47.250Z,100147.00
2019-02-05T05:29:18.485Z,100143.56
2019-02-05T05:29:49.760Z,100143.98
2019-02-05T05:30:20.976Z,100146.58
2019-02-05T05:30:52.182Z,100144.41
2019-02-05T05:31:23.395Z,100148.73
2019-02-05T05:31:54.607Z,100154.35
2019-02-05T05:32:26.177Z,100154.78
2019-02-05T05:32:57.393Z,100147.45
2019-02-05T05:33:28.633Z,100149.61
2019-02-05T05:33:59.850Z,100152.63
2019-02-05T05:34:31.099Z,100153.50
2019-02-05T05:35:02.322Z,100153.93
2019-02-05T05:35:41.863Z,100156.08
2019-02-05T05:36:06.482Z,100155.67
2019-02-05T05:36:37.713Z,100155.66
2019-02-05T05:37:08.935Z,100159.13
2019-02-05T05:37:40.289Z,100161.72
2019-02-05T05:38:11.992Z,100159.11
2019-02-05T05:38:43.202Z,100157.36
2019-02-05T05:39:14.414Z,100162.11
2019-02-05T05:39:45.626Z,100162.10
2019-02-05T05:40:16.962Z,100160.81
2019-02-05T05:40:48.153Z,100157.36
2019-02-05T05:41:19.432Z,100155.60
2019-02-05T05:41:50.647Z,100158.63
2019-02-05T05:42:21.890Z,100156.90
2019-02-05T05:42:53.099Z,100158.63
2019-02-05T05:43:24.329Z,100160.77
2019-02-05T05:43:55.826Z,100161.63
2019-02-05T05:44:27.035Z,100159.05
2019-02-05T05:44:58.253Z,100155.58
2019-02-05T05:45:29.494Z,100155.99
2019-02-05T05:46:00.780Z,100162.45
2019-02-05T05:46:32.015Z,100157.24
2019-02-05T05:47:03.254Z,100164.59
2019-02-05T05:47:34.461Z,100161.98
2019-02-05T05:48:05.671Z,100158.98
2019-02-05T05:48:37.062Z,100158.98
2019-02-05T05:49:08.269Z,100165.86
2019-02-05T05:49:39.510Z,100161.55
2019-02-05T05:50:10.738Z,100160.25
2019-02-05T05:50:41.955Z,100164.14
2019-02-05T05:51:13.229Z,100165.84
2019-02-05T05:51:44.431Z,100161.05
2019-02-05T05:52:15.634Z,100170.12
2019-02-05T05:52:46.854Z,100167.06
2019-02-05T05:53:18.067Z,100165.34
2019-02-05T05:53:49.299Z,100168.37
2019-02-05T05:54:20.853Z,100173.08
2019-02-05T05:54:52.063Z,100175.64
2019-02-05T05:55:23.278Z,100171.74
2019-02-05T05:55:54.513Z,100177.33
2019-02-05T05:56:25.774Z,100178.15
2019-02-05T05:56:57.024Z,100179.43
2019-02-05T05:57:28.264Z,100172.91